Time;durP1;ratioP1;P1;durP2;ratioP2;P2;SDS_P1;SDS_P2;PMS_P1;PMS_P2;Temp;Humidity;BMP_temperature;BMP_pressure;BME280_temperature;BME280_humidity;BME280_pressure;Samples;Min_cycle;Max_cycle;Signal;HPM_P1;HPM_P2
2023/01/04 00:02:04;;;;;;;8.43;4.17;;;7.90;99.90;;;;;;4877443;29;20109;-87
2023/01/04 00:04:29;;;;;;;7.40;3.70;;;7.90;99.90;;;;;;4868878;29;20056;-86
2023/01/04 00:06:55;;;;;;;9.37;4.13;;;7.80;99.90;;;;;;4859031;29;20053;-84
2023/01/04 00:09:21;;;;;;;9.03;4.20;;;7.90;99.90;;;;;;4865367;29;20121;-85
2023/01/04 00:11:47;;;;;;;7.77;4.10;;;7.80;99.90;;;;;;4869482;29;20501;-86
2023/01/04 00:14:13;;;;;;;7.97;3.90;;;7.90;99.90;;;;;;4871824;29;20049;-84
2023/01/04 00:16:39;;;;;;;11.07;4.50;;;7.90;99.90;;;;;;4877257;29;20053;-85
2023/01/04 00:19:05;;;;;;;8.77;4.37;;;7.90;99.90;;;;;;4856713;29;20049;-87
2023/01/04 00:21:31;;;;;;;8.50;4.10;;;7.90;99.90;;;;;;4843542;29;20042;-84
2023/01/04 00:23:59;;;;;;;7.13;4.00;;;7.90;99.90;;;;;;4857709;29;20489;-85
2023/01/04 00:26:30;;;;;;;7.43;4.20;;;7.90;99.90;;;;;;4877334;29;20105;-85
2023/01/04 00:29:05;;;;;;;10.65;4.30;;;8.00;99.90;;;;;;4877461;29;20610;-86
2023/01/04 00:31:31;;;;;;;12.40;4.27;;;8.00;99.90;;;;;;4858933;29;20729;-86
2023/01/04 00:33:59;;;;;;;8.93;4.77;;;8.00;99.90;;;;;;4861400;29;20132;-86
2023/01/04 00:36:28;;;;;;;8.57;3.60;;;8.00;99.90;;;;;;4866123;29;20576;-86
2023/01/04 00:39:06;;;;;;;9.53;3.93;;;8.00;99.90;;;;;;4886421;29;20064;-85
2023/01/04 00:41:34;;;;;;;8.60;4.03;;;8.00;99.90;;;;;;4875331;29;20041;-86
2023/01/04 00:44:02;;;;;;;11.87;4.67;;;8.00;99.90;;;;;;4864510;29;20457;-87
2023/01/04 00:46:28;;;;;;;8.97;4.80;;;7.90;99.90;;;;;;4877399;29;20088;-88
2023/01/04 00:48:54;;;;;;;6.87;3.90;;;7.90;99.90;;;;;;4866475;29;20052;-85
2023/01/04 00:51:20;;;;;;;7.77;3.73;;;7.90;99.90;;;;;;4843570;29;20045;-85
2023/01/04 00:53:45;;;;;;;9.67;3.80;;;7.90;99.90;;;;;;4874324;29;20380;-86
2023/01/04 00:56:11;;;;;;;5.67;3.93;;;7.80;99.90;;;;;;4877000;29;20053;-86
2023/01/04 00:58:39;;;;;;;8.47;4.30;;;7.80;99.90;;;;;;4861974;29;20056;-85
2023/01/04 01:01:06;;;;;;;9.03;4.23;;;7.80;99.90;;;;;;4876513;29;20056;-85
2023/01/04 01:03:32;;;;;;;7.57;3.70;;;7.70;99.90;;;;;;4849313;29;20052;-86
2023/01/04 01:06:03;;;;;;;9.53;3.80;;;7.80;99.90;;;;;;4862024;29;20405;-84
2023/01/04 01:08:31;;;;;;;8.03;4.00;;;7.70;99.90;;;;;;4877078;29;20089;-85
2023/01/04 01:11:05;;;;;;;6.90;4.13;;;7.70;99.90;;;;;;4882340;29;20037;-85
2023/01/04 01:13:31;;;;;;;7.57;4.43;;;7.70;99.90;;;;;;4849952;29;20045;-85
2023/01/04 01:16:03;;;;;;;6.07;3.67;;;7.70;99.90;;;;;;4869435;29;20093;-84
2023/01/04 01:18:29;;;;;;;6.85;3.92;;;7.70;99.90;;;;;;4877188;29;20503;-84
2023/01/04 01:20:55;;;;;;;8.70;4.10;;;7.70;99.90;;;;;;4861814;29;20489;-84
2023/01/04 01:23:20;;;;;;;8.40;4.40;;;7.70;99.90;;;;;;4865523;29;20049;-86
2023/01/04 01:25:46;;;;;;;5.83;3.90;;;7.80;99.90;;;;;;4876788;29;20045;-84
2023/01/04 01:28:12;;;;;;;10.23;4.10;;;7.70;99.90;;;;;;4877021;29;20053;-86
2023/01/04 01:30:40;;;;;;;6.83;4.00;;;7.70;99.90;;;;;;4876256;29;20393;-85
2023/01/04 01:33:09;;;;;;;8.90;4.03;;;7.70;99.90;;;;;;4873730;29;20076;-85
2023/01/04 01:35:35;;;;;;;6.80;4.17;;;7.80;99.90;;;;;;4844309;29;20157;-86
2023/01/04 01:38:01;;;;;;;7.93;4.23;;;7.80;99.90;;;;;;4861247;29;20072;-85
2023/01/04 01:40:27;;;;;;;7.00;4.23;;;7.80;99.90;;;;;;4869694;29;20105;-86
2023/01/04 01:42:53;;;;;;;7.20;3.80;;;7.80;99.90;;;;;;4868511;29;20045;-84
2023/01/04 01:45:30;;;;;;;7.80;3.90;;;7.80;99.90;;;;;;4872871;29;20053;-84
2023/01/04 01:48:05;;;;;;;10.93;4.87;;;7.80;99.90;;;;;;4858419;29;20049;-84
2023/01/04 01:50:37;;;;;;;7.60;4.10;;;7.80;99.90;;;;;;4867951;29;20045;-85
2023/01/04 01:53:06;;;;;;;6.53;4.28;;;7.80;99.90;;;;;;4864914;29;20442;-83
2023/01/04 01:55:32;;;;;;;8.50;4.43;;;7.80;99.90;;;;;;4858339;29;20049;-84
2023/01/04 01:58:00;;;;;;;7.00;3.97;;;7.80;99.90;;;;;;4866670;29;20052;-83
2023/01/04 02:00:26;;;;;;;6.47;4.53;;;7.80;99.90;;;;;;4845420;29;20516;-84
2023/01/04 02:03:19;;;;;;;6.17;4.10;;;7.80;99.90;;;;;;4858308;29;20099;-84
2023/01/04 02:05:52;;;;;;;8.27;4.33;;;7.80;99.90;;;;;;4871597;29;20084;-84
2023/01/04 02:08:21;;;;;;;7.13;4.23;;;7.80;99.90;;;;;;4879267;29;20132;-84
2023/01/04 02:10:47;;;;;;;10.33;5.10;;;7.80;99.90;;;;;;4864199;29;20549;-84
2023/01/04 02:13:17;;;;;;;12.03;4.67;;;7.80;99.90;;;;;;4857445;29;20041;-84
2023/01/04 02:16:13;;;;;;;8.73;4.53;;;7.80;99.90;;;;;;4877304;29;20049;-83
2023/01/04 02:18:57;;;;;;;8.37;4.27;;;7.80;99.90;;;;;;4875780;29;20041;-82
2023/01/04 02:21:47;;;;;;;11.73;4.53;;;7.80;99.90;;;;;;4847239;29;20100;-85
2023/01/04 02:24:19;;;;;;;7.73;4.80;;;7.80;99.90;;;;;;4860707;29;20049;-85
2023/01/04 02:27:24;;;;;;;8.77;4.43;;;7.90;99.90;;;;;;4876316;29;20494;-85
2023/01/04 02:30:20;;;;;;;7.10;3.90;;;7.90;99.90;;;;;;4860557;29;20050;-84
2023/01/04 02:32:54;;;;;;;5.73;3.70;;;7.90;99.90;;;;;;4866482;29;20067;-84
2023/01/04 02:35:55;;;;;;;7.07;4.17;;;7.90;99.90;;;;;;4868521;29;20041;-82
2023/01/04 02:38:54;;;;;;;5.30;3.87;;;7.90;99.90;;;;;;4879165;29;20474;-83
2023/01/04 02:41:58;;;;;;;6.20;3.87;;;8.00;99.90;;;;;;4873548;29;20413;-83
2023/01/04 02:44:54;;;;;;;7.27;3.67;;;7.90;99.90;;;;;;4868895;29;20052;-82
2023/01/04 02:50:31;;;;;;;6.03;3.30;;;8.00;99.90;;;;;;4861720;29;20417;-84
2023/01/04 02:53:14;;;;;;;5.97;3.73;;;8.00;99.90;;;;;;4869413;29;20045;-84
2023/01/04 02:56:01;;;;;;;4.33;3.17;;;8.00;99.90;;;;;;4860284;29;20049;-84
2023/01/04 02:58:58;;;;;;;6.90;3.37;;;8.10;99.90;;;;;;4874053;29;20123;-84
2023/01/04 03:08:00;;;;;;;4.40;2.70;;;8.10;99.90;;;;;;4867753;29;20041;-81
2023/01/04 03:10:54;;;;;;;3.30;2.47;;;8.20;99.90;;;;;;4878116;29;20124;-81
2023/01/04 03:13:41;;;;;;;5.13;2.90;;;8.20;99.90;;;;;;4847451;29;20050;-83
2023/01/04 03:16:23;;;;;;;4.10;2.50;;;8.20;99.90;;;;;;4860279;29;20655;-85
2023/01/04 03:18:56;;;;;;;3.88;2.90;;;8.30;99.90;;;;;;4855270;29;20056;-85
2023/01/04 03:21:25;;;;;;;4.07;2.73;;;8.30;99.90;;;;;;4869527;29;20104;-81
2023/01/04 03:35:36;;;;;;;4.70;3.20;;;8.40;99.90;;;;;;4859355;29;20523;-82
2023/01/04 03:48:30;;;;;;;4.10;2.97;;;8.60;99.90;;;;;;4863571;29;20089;-84
2023/01/04 03:51:05;;;;;;;4.50;3.27;;;8.60;99.90;;;;;;4850140;29;20044;-83
2023/01/04 03:53:35;;;;;;;6.00;3.63;;;8.70;99.90;;;;;;4864035;29;20413;-82
2023/01/04 03:56:02;;;;;;;3.93;3.50;;;8.70;99.90;;;;;;4859067;29;20081;-85
2023/01/04 03:58:27;;;;;;;3.37;2.93;;;8.80;99.90;;;;;;4876426;29;20052;-83
2023/01/04 04:01:02;;;;;;;5.10;3.33;;;8.80;99.90;;;;;;4849177;29;20049;-82
2023/01/04 04:08:59;;;;;;;4.67;3.27;;;9.00;99.90;;;;;;4864578;29;20125;-85
2023/01/04 04:11:31;;;;;;;3.83;3.50;;;9.00;99.90;;;;;;4874364;29;20048;-84
2023/01/04 04:13:58;;;;;;;;;;;9.00;99.90;;;;;;4864274;29;20094;-84
2023/01/04 04:16:24;;;;;;;4.27;3.57;;;9.10;99.90;;;;;;4868453;29;19931;-83
2023/01/04 04:18:50;;;;;;;5.37;3.40;;;9.10;99.90;;;;;;4869699;29;20401;-84
2023/01/04 04:21:15;;;;;;;3.70;3.30;;;9.10;99.90;;;;;;4862236;29;20045;-84
2023/01/04 04:23:42;;;;;;;3.93;3.23;;;9.10;99.90;;;;;;4874901;29;20064;-85
2023/01/04 04:26:08;;;;;;;3.63;3.23;;;9.20;99.90;;;;;;4875833;29;20053;-82
2023/01/04 04:28:34;;;;;;;3.23;2.93;;;9.20;99.90;;;;;;4878824;29;20084;-85
2023/01/04 04:31:00;;;;;;;3.13;2.83;;;9.20;99.90;;;;;;4877509;29;20052;-83
2023/01/04 04:33:25;;;;;;;3.53;3.10;;;9.30;99.90;;;;;;4861732;29;20053;-82
2023/01/04 04:35:53;;;;;;;4.30;2.60;;;9.30;99.90;;;;;;4865883;29;20053;-84
2023/01/04 04:38:18;;;;;;;5.47;3.30;;;9.30;99.90;;;;;;4877970;29;20531;-84
2023/01/04 04:43:29;;;;;;;3.57;2.90;;;9.30;99.90;;;;;;4858485;29;20574;-86
2023/01/04 04:45:55;;;;;;;5.50;2.97;;;9.40;99.90;;;;;;4851370;29;20050;-83
2023/01/04 04:48:21;;;;;;;4.00;2.70;;;9.50;99.90;;;;;;4843370;29;20088;-84
2023/01/04 04:50:47;;;;;;;2.97;2.77;;;9.50;99.90;;;;;;4865607;29;20073;-82
2023/01/04 04:53:12;;;;;;;3.07;2.77;;;9.50;99.90;;;;;;4877163;29;20070;-83
2023/01/04 04:55:38;;;;;;;3.80;2.90;;;9.60;99.90;;;;;;4877587;29;20501;-82
2023/01/04 04:58:04;;;;;;;3.60;2.93;;;9.60;99.90;;;;;;4866670;29;20133;-83
2023/01/04 05:00:29;;;;;;;3.30;3.00;;;9.60;99.90;;;;;;4873370;29;20089;-82
2023/01/04 05:02:59;;;;;;;3.00;2.67;;;9.60;99.90;;;;;;4861590;29;20041;-84
2023/01/04 05:05:25;;;;;;;4.43;3.00;;;9.70;99.90;;;;;;4861421;29;20070;-85
2023/01/04 05:07:51;;;;;;;3.90;3.50;;;9.70;99.90;;;;;;4861412;29;20041;-84
2023/01/04 05:10:17;;;;;;;3.43;3.00;;;9.70;99.90;;;;;;4859142;29;20049;-84
2023/01/04 05:12:58;;;;;;;4.00;3.50;;;9.80;99.90;;;;;;4827904;29;20108;-83
2023/01/04 05:15:33;;;;;;;3.60;3.30;;;9.80;99.90;;;;;;4852372;29;20105;-84
2023/01/04 05:17:59;;;;;;;3.90;3.50;;;9.90;99.90;;;;;;4868194;29;20501;-84
2023/01/04 05:20:25;;;;;;;4.97;4.10;;;9.90;99.90;;;;;;4843082;29;20064;-84
2023/01/04 05:22:51;;;;;;;4.23;3.83;;;9.90;99.90;;;;;;4867916;29;20104;-83
2023/01/04 05:25:17;;;;;;;5.13;4.47;;;9.90;99.90;;;;;;4855576;29;20049;-81
2023/01/04 05:27:43;;;;;;;4.87;4.20;;;10.00;99.90;;;;;;4857904;29;20049;-83
2023/01/04 05:32:55;;;;;;;5.57;4.60;;;10.00;99.90;;;;;;4874741;29;20080;-82
2023/01/04 05:35:21;;;;;;;4.73;4.20;;;10.00;99.90;;;;;;4861595;29;20057;-83
2023/01/04 05:37:47;;;;;;;6.67;4.77;;;10.10;99.90;;;;;;4866566;29;20131;-83
2023/01/04 05:40:13;;;;;;;5.47;4.97;;;10.10;99.90;;;;;;4864944;29;20169;-83
2023/01/04 05:42:41;;;;;;;6.23;5.00;;;10.10;99.90;;;;;;4878658;29;20092;-85
2023/01/04 05:45:07;;;;;;;6.97;5.83;;;10.20;99.90;;;;;;4860995;29;20449;-79
2023/01/04 05:47:34;;;;;;;5.67;5.07;;;10.20;99.90;;;;;;4861434;29;20497;-86
2023/01/04 05:50:00;;;;;;;5.90;5.30;;;10.20;99.90;;;;;;4853598;29;20040;-84
2023/01/04 05:52:26;;;;;;;6.40;5.80;;;10.20;99.90;;;;;;4873194;29;20090;-84
2023/01/04 05:54:52;;;;;;;6.30;5.70;;;10.20;99.90;;;;;;4869728;29;20096;-82
2023/01/04 05:57:18;;;;;;;7.30;6.00;;;10.30;99.90;;;;;;4868445;29;20136;-84
2023/01/04 05:59:44;;;;;;;9.57;6.67;;;10.20;99.90;;;;;;4870031;29;20041;-82
2023/01/04 06:02:19;;;;;;;6.87;6.00;;;10.30;99.90;;;;;;4854688;29;20485;-82
2023/01/04 06:04:46;;;;;;;9.37;6.40;;;10.30;99.90;;;;;;4862893;29;20072;-81
2023/01/04 06:07:12;;;;;;;8.03;6.83;;;10.30;99.90;;;;;;4865292;29;20129;-82
2023/01/04 06:09:39;;;;;;;7.73;6.03;;;10.30;99.90;;;;;;4852693;29;20086;-83
2023/01/04 06:12:05;;;;;;;7.40;6.00;;;10.30;99.90;;;;;;4866976;29;20050;-83
2023/01/04 06:14:31;;;;;;;8.37;6.07;;;10.40;99.90;;;;;;4872117;29;20053;-85
2023/01/04 06:16:57;;;;;;;7.87;5.73;;;10.40;99.90;;;;;;4865476;29;20072;-81
2023/01/04 06:19:23;;;;;;;7.23;5.90;;;10.40;99.90;;;;;;4863944;29;20079;-83
2023/01/04 06:21:48;;;;;;;8.20;6.10;;;10.40;99.90;;;;;;4874028;29;20049;-83
2023/01/04 06:24:14;;;;;;;7.87;6.03;;;10.40;99.90;;;;;;4848290;29;20101;-81
2023/01/04 06:26:40;;;;;;;9.83;6.57;;;10.40;99.90;;;;;;4879231;29;20037;-83
2023/01/04 06:29:13;;;;;;;6.73;5.90;;;10.40;99.90;;;;;;4846999;29;20038;-83
2023/01/04 06:31:38;;;;;;;6.33;5.40;;;10.50;99.90;;;;;;4889597;29;20045;-83
2023/01/04 06:34:04;;;;;;;9.20;5.87;;;10.50;99.90;;;;;;4874082;29;20073;-83
2023/01/04 06:36:30;;;;;;;7.43;5.70;;;10.50;99.90;;;;;;4858370;29;20049;-83
2023/01/04 06:38:57;;;;;;;7.13;5.10;;;10.60;99.90;;;;;;4867998;29;20528;-83
2023/01/04 06:41:23;;;;;;;9.60;5.50;;;10.50;99.90;;;;;;4844953;29;20140;-83
2023/01/04 06:43:49;;;;;;;6.90;5.00;;;10.60;99.90;;;;;;4874816;29;20095;-81
2023/01/04 06:46:15;;;;;;;6.43;4.87;;;10.60;99.90;;;;;;4865238;29;20046;-83
2023/01/04 06:48:41;;;;;;;7.30;4.70;;;10.60;99.90;;;;;;4861727;29;20048;-82
2023/01/04 06:51:07;;;;;;;5.33;4.30;;;10.60;99.90;;;;;;4876233;29;20049;-85
2023/01/04 06:53:32;;;;;;;7.07;4.20;;;10.60;99.90;;;;;;4842359;29;20049;-85
2023/01/04 06:55:58;;;;;;;5.27;3.70;;;10.60;99.90;;;;;;4829333;29;20045;-84
2023/01/04 06:58:24;;;;;;;4.20;3.80;;;10.70;99.90;;;;;;4845046;29;20173;-83
2023/01/04 07:00:54;;;;;;;4.63;4.13;;;10.70;99.90;;;;;;4872752;29;20462;-85
2023/01/04 07:03:20;;;;;;;5.53;4.27;;;10.70;99.90;;;;;;4875379;29;20078;-83
2023/01/04 07:05:46;;;;;;;4.20;3.70;;;10.70;99.90;;;;;;4847591;29;20041;-81
2023/01/04 07:08:14;;;;;;;5.47;4.03;;;10.70;99.90;;;;;;4861191;29;20041;-84
2023/01/04 07:10:40;;;;;;;5.00;4.10;;;10.70;99.90;;;;;;4863393;29;20040;-84
2023/01/04 07:13:06;;;;;;;5.03;3.83;;;10.70;99.90;;;;;;4870533;29;20127;-84
2023/01/04 07:15:32;;;;;;;5.63;4.10;;;10.70;99.90;;;;;;4878434;29;20041;-83
2023/01/04 07:17:58;;;;;;;5.83;4.20;;;10.70;99.90;;;;;;4829359;29;20128;-83
2023/01/04 07:20:24;;;;;;;5.27;4.07;;;10.70;99.90;;;;;;4863517;29;20041;-81
2023/01/04 07:22:50;;;;;;;4.33;3.63;;;10.70;99.90;;;;;;4878338;29;20527;-83
2023/01/04 07:25:16;;;;;;;4.53;3.40;;;10.70;99.90;;;;;;4868837;29;20084;-81
2023/01/04 07:27:42;;;;;;;3.95;3.55;;;10.70;99.90;;;;;;4861493;29;20080;-83
2023/01/04 07:30:08;;;;;;;4.10;3.70;;;10.70;99.90;;;;;;4869958;29;20529;-82
2023/01/04 07:32:34;;;;;;;3.35;3.05;;;10.70;99.90;;;;;;4876717;29;20133;-84
2023/01/04 07:35:00;;;;;;;3.30;3.00;;;10.70;99.90;;;;;;4874988;29;20135;-83
2023/01/04 07:37:26;;;;;;;3.70;3.00;;;10.80;99.90;;;;;;4866118;29;20060;-82
2023/01/04 07:39:51;;;;;;;4.13;3.23;;;10.80;99.90;;;;;;4851563;29;20464;-82
2023/01/04 07:42:19;;;;;;;3.87;3.10;;;10.80;99.90;;;;;;4875503;29;20088;-85
2023/01/04 07:44:45;;;;;;;3.40;3.07;;;10.80;99.90;;;;;;4861663;29;20092;-82
2023/01/04 07:47:10;;;;;;;3.95;2.90;;;10.80;99.90;;;;;;4869636;29;20050;-81
2023/01/04 07:49:36;;;;;;;3.00;2.63;;;10.80;99.90;;;;;;4853978;29;20053;-82
2023/01/04 07:52:02;;;;;;;2.77;2.57;;;10.80;99.90;;;;;;4877076;29;20507;-83
2023/01/04 07:54:28;;;;;;;3.23;2.60;;;10.80;99.90;;;;;;4868276;29;20061;-85
2023/01/04 07:56:54;;;;;;;3.10;2.80;;;10.80;99.90;;;;;;4867799;29;20059;-83
2023/01/04 07:59:20;;;;;;;3.33;3.03;;;10.80;99.90;;;;;;4876246;29;20048;-82
2023/01/04 08:01:47;;;;;;;3.10;2.80;;;10.80;99.90;;;;;;4843828;29;20049;-82
2023/01/04 08:04:14;;;;;;;2.97;2.50;;;10.90;99.90;;;;;;4870444;29;20057;-82
2023/01/04 08:06:42;;;;;;;3.23;2.77;;;10.90;99.90;;;;;;4878449;29;20037;-83
2023/01/04 08:09:10;;;;;;;2.67;2.47;;;10.90;99.90;;;;;;4860096;29;20055;-83
2023/01/04 08:11:36;;;;;;;2.93;2.33;;;10.90;99.90;;;;;;4849800;29;20037;-84
2023/01/04 08:14:02;;;;;;;3.10;2.80;;;10.90;99.90;;;;;;4866120;29;20047;-84
2023/01/04 08:16:33;;;;;;;4.30;2.70;;;10.90;99.90;;;;;;4858950;29;20086;-81
2023/01/04 08:19:02;;;;;;;3.75;3.05;;;10.90;99.90;;;;;;4866326;29;20109;-82
2023/01/04 08:21:30;;;;;;;3.10;2.70;;;10.90;99.90;;;;;;4872876;29;20401;-82
2023/01/04 08:23:56;;;;;;;2.90;2.70;;;10.90;99.90;;;;;;4858677;29;20053;-84
2023/01/04 08:26:22;;;;;;;3.73;2.90;;;11.00;99.90;;;;;;4865224;29;20040;-81
2023/01/04 08:28:50;;;;;;;4.07;3.10;;;11.00;99.90;;;;;;4846735;29;20043;-85
2023/01/04 08:31:19;;;;;;;5.17;3.37;;;11.00;99.90;;;;;;4877029;29;20146;-83
2023/01/04 08:33:46;;;;;;;4.83;3.00;;;11.00;99.90;;;;;;4874347;29;20454;-86
2023/01/04 08:36:23;;;;;;;3.43;3.13;;;11.00;99.90;;;;;;4869949;29;20120;-83
2023/01/04 08:38:50;;;;;;;5.67;3.40;;;11.10;99.90;;;;;;4860681;29;20131;-85
2023/01/04 08:41:17;;;;;;;5.33;3.43;;;11.00;99.90;;;;;;4871028;29;20049;-83
2023/01/04 08:43:43;;;;;;;6.63;3.50;;;11.00;99.90;;;;;;4855564;29;20072;-82
2023/01/04 08:46:10;;;;;;;4.30;3.10;;;11.10;99.90;;;;;;4858355;29;20049;-85
2023/01/04 08:48:36;;;;;;;3.90;3.15;;;11.10;99.90;;;;;;4870074;29;20045;-83
2023/01/04 08:51:05;;;;;;;4.18;3.10;;;11.10;99.90;;;;;;4860956;29;20072;-84
2023/01/04 08:53:31;;;;;;;4.47;3.08;;;11.10;99.90;;;;;;4857379;29;20297;-83
2023/01/04 08:55:59;;;;;;;4.80;3.10;;;11.10;99.90;;;;;;4861640;29;20045;-82
2023/01/04 08:58:25;;;;;;;3.50;2.73;;;11.10;99.90;;;;;;4825745;29;20044;-82
2023/01/04 09:00:51;;;;;;;3.65;2.60;;;11.10;99.90;;;;;;4879537;29;20037;-83
2023/01/04 09:03:17;;;;;;;3.27;2.97;;;11.10;99.90;;;;;;4860664;29;20044;-82
2023/01/04 09:05:43;;;;;;;3.63;2.60;;;11.20;99.90;;;;;;4853519;29;20077;-83
2023/01/04 09:08:10;;;;;;;2.60;2.40;;;11.10;99.90;;;;;;4867656;29;20046;-83
2023/01/04 09:10:39;;;;;;;3.22;2.58;;;11.20;99.90;;;;;;4866429;29;20397;-83
2023/01/04 09:13:05;;;;;;;3.40;2.30;;;11.20;99.90;;;;;;4874784;29;20033;-83
2023/01/04 09:15:32;;;;;;;3.27;2.07;;;11.20;99.90;;;;;;4865243;29;20069;-83
2023/01/04 09:17:58;;;;;;;3.03;2.10;;;11.20;99.90;;;;;;4853778;29;20491;-81
2023/01/04 09:20:24;;;;;;;2.00;1.80;;;11.20;99.90;;;;;;4880873;29;20060;-81
2023/01/04 09:22:50;;;;;;;2.20;2.00;;;11.20;99.90;;;;;;4876481;29;20701;-84
2023/01/04 09:25:15;;;;;;;3.00;2.00;;;11.20;99.90;;;;;;4878021;29;20131;-83
2023/01/04 09:27:43;;;;;;;4.03;2.33;;;11.20;99.90;;;;;;4895548;29;20068;-80
2023/01/04 09:30:09;;;;;;;2.73;1.70;;;11.20;99.90;;;;;;4880002;29;20104;-84
2023/01/04 09:32:35;;;;;;;2.75;1.60;;;11.20;99.90;;;;;;4897761;29;20048;-82
2023/01/04 09:35:01;;;;;;;3.33;1.80;;;11.20;99.90;;;;;;4866804;29;20044;-81
2023/01/04 09:37:27;;;;;;;2.75;1.98;;;11.20;99.90;;;;;;4881080;29;20139;-81
2023/01/04 09:39:53;;;;;;;1.45;1.35;;;11.20;99.90;;;;;;4863658;29;20143;-83
2023/01/04 09:42:29;;;;;;;1.70;1.60;;;11.30;99.90;;;;;;4863661;29;20120;-83
2023/01/04 09:45:00;;;;;;;2.25;1.50;;;11.30;99.90;;;;;;4865948;29;20057;-80
2023/01/04 09:47:45;;;;;;;2.70;1.30;;;11.20;99.90;;;;;;4878803;29;20044;-83
2023/01/04 09:50:22;;;;;;;3.03;2.00;;;11.30;99.90;;;;;;4877502;29;20482;-82
2023/01/04 09:52:54;;;;;;;1.60;1.50;;;11.30;99.90;;;;;;4860293;29;20177;-82
2023/01/04 09:55:26;;;;;;;1.70;1.40;;;11.30;99.90;;;;;;4890126;29;20404;-83
2023/01/04 09:57:58;;;;;;;1.55;1.42;;;11.30;99.90;;;;;;4869423;29;20040;-84
2023/01/04 10:00:42;;;;;;;;;;;11.30;99.90;;;;;;4885365;29;20136;-85
2023/01/04 10:03:14;;;;;;;1.73;1.60;;;11.30;99.90;;;;;;4870769;29;19927;-83
2023/01/04 10:05:41;;;;;;;1.70;1.60;;;11.20;99.90;;;;;;4857495;29;20093;-82
2023/01/04 10:08:15;;;;;;;1.45;1.30;;;11.30;99.90;;;;;;4863644;29;20033;-84
2023/01/04 10:10:47;;;;;;;1.35;1.23;;;11.30;99.90;;;;;;4873430;29;20052;-84
2023/01/04 10:13:24;;;;;;;2.05;1.33;;;11.30;99.90;;;;;;4891944;29;20053;-84
2023/01/04 10:15:52;;;;;;;2.50;1.40;;;11.30;99.90;;;;;;4887822;29;20064;-85
2023/01/04 10:18:49;;;;;;;2.47;1.60;;;11.30;99.90;;;;;;4872408;29;20097;-83
2023/01/04 10:21:35;;;;;;;2.03;1.42;;;11.30;99.90;;;;;;4877425;29;20764;-84
2023/01/04 10:24:24;;;;;;;3.50;1.85;;;11.30;99.90;;;;;;4903559;29;20060;-85
2023/01/04 10:26:54;;;;;;;2.95;1.38;;;11.30;99.90;;;;;;4874006;29;20067;-84
2023/01/04 10:29:55;;;;;;;4.45;2.03;;;11.30;99.90;;;;;;4880032;29;20052;-84
2023/01/04 10:32:35;;;;;;;5.95;2.13;;;11.40;99.90;;;;;;4886528;29;20097;-85
2023/01/04 10:35:20;;;;;;;9.00;2.83;;;11.40;99.90;;;;;;4896334;29;20049;-83
2023/01/04 10:37:51;;;;;;;5.60;2.45;;;11.40;99.90;;;;;;4876638;29;20081;-82
2023/01/04 10:40:17;;;;;;;6.68;2.13;;;11.50;99.90;;;;;;4877573;29;20056;-84
2023/01/04 10:42:43;;;;;;;9.02;2.63;;;11.60;99.90;;;;;;4862658;29;20088;-85
2023/01/04 10:45:26;;;;;;;8.90;2.38;;;11.60;99.90;;;;;;4875409;29;20056;-84
2023/01/04 10:48:29;;;;;;;11.68;2.80;;;11.70;99.90;;;;;;4893221;29;20041;-85
2023/01/04 10:51:02;;;;;;;8.93;2.95;;;11.70;99.90;;;;;;4903443;29;20056;-83
2023/01/04 10:53:56;;;;;;;9.98;2.72;;;11.70;99.90;;;;;;4876440;29;20047;-83
2023/01/04 10:56:36;;;;;;;15.48;3.65;;;11.70;99.90;;;;;;4875803;29;20051;-85
2023/01/04 10:59:08;;;;;;;11.38;3.13;;;11.80;99.90;;;;;;4872877;29;20049;-84
2023/01/04 11:01:40;;;;;;;;;;;11.80;99.90;;;;;;4886840;29;20044;-82
2023/01/04 11:04:32;;;;;;;11.63;3.22;;;11.90;99.90;;;;;;4888693;29;19923;-82
2023/01/04 11:07:06;;;;;;;15.13;3.88;;;11.90;99.90;;;;;;4903541;29;20372;-83
2023/01/04 11:09:41;;;;;;;12.55;4.22;;;11.90;99.90;;;;;;4859970;29;20052;-84
2023/01/04 11:12:10;;;;;;;14.85;3.95;;;11.90;99.90;;;;;;4852350;29;20041;-83
2023/01/04 11:14:36;;;;;;;12.05;3.80;;;12.00;99.90;;;;;;4855199;29;20053;-84
2023/01/04 11:17:06;;;;;;;11.55;3.85;;;12.00;99.90;;;;;;4869146;29;20056;-83
2023/01/04 11:19:33;;;;;;;14.02;4.03;;;12.00;99.90;;;;;;4862085;29;20073;-85
2023/01/04 11:22:28;;;;;;;15.23;4.72;;;12.00;99.90;;;;;;4875229;29;20613;-83
2023/01/04 11:25:00;;;;;;;19.67;4.28;;;12.10;99.90;;;;;;4856817;29;20059;-83
2023/01/04 11:27:30;;;;;;;16.42;4.20;;;12.00;99.90;;;;;;4873480;29;20489;-84
2023/01/04 11:30:23;;;;;;;16.85;4.10;;;12.00;99.90;;;;;;4873666;29;20045;-83
2023/01/04 11:33:15;;;;;;;15.73;4.13;;;12.00;99.90;;;;;;4848730;29;20168;-85
2023/01/04 11:35:44;;;;;;;12.50;3.88;;;12.00;99.90;;;;;;4866345;29;20113;-84
2023/01/04 11:38:21;;;;;;;15.20;3.90;;;12.00;99.90;;;;;;4859526;29;20052;-85
2023/01/04 11:41:05;;;;;;;15.55;4.15;;;12.00;99.90;;;;;;4866303;29;20052;-86
2023/01/04 11:43:33;;;;;;;18.67;3.97;;;12.00;99.90;;;;;;4873583;29;20096;-84
2023/01/04 11:46:03;;;;;;;14.90;4.10;;;12.00;99.90;;;;;;4861995;29;20055;-81
2023/01/04 11:48:37;;;;;;;15.40;4.13;;;12.10;99.90;;;;;;4867860;29;20041;-84
2023/01/04 11:51:04;;;;;;;17.42;3.97;;;12.10;99.90;;;;;;4856168;29;20041;-83
2023/01/04 11:53:35;;;;;;;12.80;3.85;;;12.10;99.90;;;;;;4862060;29;20053;-83
2023/01/04 11:56:12;;;;;;;18.55;4.43;;;12.10;99.90;;;;;;4868776;29;20438;-83
2023/01/04 11:58:38;;;;;;;15.80;3.63;;;12.10;99.90;;;;;;4872150;29;20076;-83
2023/01/04 12:01:05;;;;;;;12.40;3.38;;;12.10;99.90;;;;;;4872920;29;20038;-83
2023/01/04 12:03:39;;;;;;;19.05;4.32;;;12.20;99.90;;;;;;4868069;29;20045;-85
2023/01/04 12:06:23;;;;;;;15.02;3.53;;;12.20;99.90;;;;;;4876154;29;20044;-84
2023/01/04 12:08:49;;;;;;;12.25;3.40;;;12.20;99.90;;;;;;4862305;29;20085;-85
2023/01/04 12:11:26;;;;;;;13.75;3.58;;;12.20;99.90;;;;;;4845610;29;20077;-82
2023/01/04 12:13:52;;;;;;;10.60;2.90;;;12.30;99.90;;;;;;4848940;29;20410;-84
2023/01/04 12:16:45;;;;;;;13.95;3.10;;;12.30;99.90;;;;;;4862666;29;20053;-84
2023/01/04 12:19:16;;;;;;;11.02;3.28;;;12.40;99.90;;;;;;4862399;29;20047;-82
2023/01/04 12:21:49;;;;;;;12.80;3.10;;;12.30;99.90;;;;;;4860713;29;20527;-84
2023/01/04 12:24:18;;;;;;;10.90;2.50;;;12.40;99.90;;;;;;4857397;29;20057;-85
2023/01/04 12:26:45;;;;;;;6.82;2.20;;;12.40;99.90;;;;;;4856074;29;20049;-83
2023/01/04 12:29:23;;;;;;;8.98;2.50;;;12.40;99.90;;;;;;4837652;29;20033;-83
2023/01/04 12:31:50;;;;;;;10.38;2.30;;;12.40;99.90;;;;;;4874373;29;20052;-83
2023/01/04 12:34:22;;;;;;;7.90;2.05;;;12.40;99.90;;;;;;4856993;29;20573;-84
2023/01/04 12:36:54;;;;;;;7.10;2.15;;;12.50;99.90;;;;;;4869749;29;20370;-83
2023/01/04 12:39:21;;;;;;;8.02;2.53;;;12.50;99.90;;;;;;4867930;29;20553;-83
2023/01/04 12:42:03;;;;;;;3.58;1.55;;;12.50;99.90;;;;;;4863483;29;20576;-83
2023/01/04 12:44:38;;;;;;;3.42;1.40;;;12.40;99.90;;;;;;4843360;29;20149;-84
2023/01/04 12:50:23;;;;;;;6.32;1.38;;;12.40;99.90;;;;;;4868731;29;20045;-84
2023/01/04 12:53:03;;;;;;;2.88;1.30;;;12.40;99.90;;;;;;4867174;29;20041;-83
2023/01/04 12:55:32;;;;;;;6.30;1.45;;;12.40;99.90;;;;;;4868695;29;20180;-84
2023/01/04 12:58:02;;;;;;;5.15;1.50;;;12.40;99.90;;;;;;4869411;29;20056;-84
2023/01/04 13:00:50;;;;;;;3.08;1.00;;;12.40;99.90;;;;;;4863757;29;20057;-83
2023/01/04 13:03:15;;;;;;;4.72;1.40;;;12.40;99.90;;;;;;4869658;29;20480;-85
2023/01/04 13:05:49;;;;;;;4.18;1.65;;;12.40;99.90;;;;;;4861210;29;20085;-83
2023/01/04 13:08:14;;;;;;;7.63;1.92;;;12.40;99.90;;;;;;4875609;29;20049;-84
2023/01/04 13:10:53;;;;;;;7.80;1.60;;;12.40;99.90;;;;;;4851129;29;20051;-85
2023/01/04 13:13:28;;;;;;;7.22;1.92;;;12.40;99.90;;;;;;4863157;29;20488;-84
2023/01/04 13:16:31;;;;;;;11.82;2.88;;;12.40;99.90;;;;;;4873099;29;20076;-83
2023/01/04 13:19:12;;;;;;;9.05;2.63;;;12.30;99.90;;;;;;4860379;29;20396;-84
2023/01/04 13:21:41;;;;;;;11.68;2.58;;;12.30;99.90;;;;;;4861170;29;20076;-84
2023/01/04 13:24:30;;;;;;;10.38;2.67;;;12.30;99.90;;;;;;4872009;29;20059;-84
2023/01/04 13:27:05;;;;;;;10.35;3.38;;;12.30;99.90;;;;;;4876296;29;20049;-83
2023/01/04 13:29:33;;;;;;;13.63;3.03;;;12.30;99.90;;;;;;4860342;29;20460;-83
2023/01/04 13:32:01;;;;;;;13.05;3.08;;;12.30;99.90;;;;;;4858482;29;20046;-85
2023/01/04 13:34:45;;;;;;;12.43;3.30;;;12.30;99.90;;;;;;4876396;29;20736;-85
2023/01/04 13:37:12;;;;;;;11.85;3.53;;;12.20;99.90;;;;;;4874778;29;20060;-85
2023/01/04 13:39:44;;;;;;;10.05;3.10;;;12.20;99.90;;;;;;4865172;29;20053;-84
2023/01/04 13:42:38;;;;;;;11.60;3.00;;;12.20;99.90;;;;;;4868703;29;20549;-83
2023/01/04 13:45:14;;;;;;;11.77;3.20;;;12.20;99.90;;;;;;4853828;29;20139;-85
2023/01/04 13:47:42;;;;;;;15.90;3.92;;;12.20;99.90;;;;;;4861138;29;20085;-83
2023/01/04 13:50:34;;;;;;;12.82;3.92;;;12.10;99.90;;;;;;4858835;29;20056;-83
2023/01/04 13:53:00;;;;;;;12.00;3.45;;;12.10;99.90;;;;;;4861652;29;20052;-85
2023/01/04 13:55:29;;;;;;;13.90;3.60;;;12.10;99.90;;;;;;4870229;29;20101;-84
2023/01/04 13:57:56;;;;;;;16.25;4.35;;;12.10;99.90;;;;;;4862840;29;20052;-85